sensor_id;sensor_type;location;lat;lon;timestamp;temperature;humidity
4526;DHT22;2275;52.208;8.804;2022-10-17T00:00:29;13.60;99.90
4526;DHT22;2275;52.208;8.804;2022-10-17T00:02:57;13.60;99.90
4526;DHT22;2275;52.208;8.804;2022-10-17T00:05:24;13.60;99.90
4526;DHT22;2275;52.208;8.804;2022-10-17T00:07:52;13.60;99.90
4526;DHT22;2275;52.208;8.804;2022-10-17T00:10:19;13.60;99.90
4526;DHT22;2275;52.208;8.804;2022-10-17T00:12:46;13.60;99.90
4526;DHT22;2275;52.208;8.804;2022-10-17T00:15:14;13.60;99.90
4526;DHT22;2275;52.208;8.804;2022-10-17T00:17:42;13.60;99.90
4526;DHT22;2275;52.208;8.804;2022-10-17T00:20:10;13.60;99.90
4526;DHT22;2275;52.208;8.804;2022-10-17T00:22:38;13.60;99.90
4526;DHT22;2275;52.208;8.804;2022-10-17T00:25:06;13.60;99.90
4526;DHT22;2275;52.208;8.804;2022-10-17T00:27:35;13.70;99.90
4526;DHT22;2275;52.208;8.804;2022-10-17T00:30:03;13.60;99.90
4526;DHT22;2275;52.208;8.804;2022-10-17T00:32:30;13.60;99.90
4526;DHT22;2275;52.208;8.804;2022-10-17T00:34:58;13.60;99.90
4526;DHT22;2275;52.208;8.804;2022-10-17T00:37:25;13.70;99.90
4526;DHT22;2275;52.208;8.804;2022-10-17T00:39:52;13.60;99.90
4526;DHT22;2275;52.208;8.804;2022-10-17T00:42:19;13.60;99.90
4526;DHT22;2275;52.208;8.804;2022-10-17T00:44:56;13.60;99.90
4526;DHT22;2275;52.208;8.804;2022-10-17T00:47:22;13.60;99.90
4526;DHT22;2275;52.208;8.804;2022-10-17T00:49:49;13.60;99.90
4526;DHT22;2275;52.208;8.804;2022-10-17T00:52:19;13.60;99.90
4526;DHT22;2275;52.208;8.804;2022-10-17T00:54:47;13.60;99.90
4526;DHT22;2275;52.208;8.804;2022-10-17T00:57:13;13.60;99.90
4526;DHT22;2275;52.208;8.804;2022-10-17T00:59:41;13.50;99.90
4526;DHT22;2275;52.208;8.804;2022-10-17T01:02:10;13.50;99.90
4526;DHT22;2275;52.208;8.804;2022-10-17T01:04:36;13.60;99.90
4526;DHT22;2275;52.208;8.804;2022-10-17T01:07:03;13.50;99.90
4526;DHT22;2275;52.208;8.804;2022-10-17T01:09:31;13.50;99.90
4526;DHT22;2275;52.208;8.804;2022-10-17T01:15:09;13.50;99.90
4526;DHT22;2275;52.208;8.804;2022-10-17T01:17:39;13.50;99.90
4526;DHT22;2275;52.208;8.804;2022-10-17T01:20:22;13.50;99.90
4526;DHT22;2275;52.208;8.804;2022-10-17T01:26:01;13.50;99.90
4526;DHT22;2275;52.208;8.804;2022-10-17T01:31:03;13.60;99.90
4526;DHT22;2275;52.208;8.804;2022-10-17T01:33:32;13.60;99.90
4526;DHT22;2275;52.208;8.804;2022-10-17T01:36:35;13.60;99.90
4526;DHT22;2275;52.208;8.804;2022-10-17T01:38:48;13.60;99.90
4526;DHT22;2275;52.208;8.804;2022-10-17T01:41:27;13.60;99.90
4526;DHT22;2275;52.208;8.804;2022-10-17T01:43:58;13.60;99.90
4526;DHT22;2275;52.208;8.804;2022-10-17T01:46:28;13.60;99.90
4526;DHT22;2275;52.208;8.804;2022-10-17T01:48:54;13.60;99.90
4526;DHT22;2275;52.208;8.804;2022-10-17T01:51:25;13.60;99.90
4526;DHT22;2275;52.208;8.804;2022-10-17T01:54:13;13.50;99.90
4526;DHT22;2275;52.208;8.804;2022-10-17T01:56:42;13.50;99.90
4526;DHT22;2275;52.208;8.804;2022-10-17T01:59:19;13.50;99.90
4526;DHT22;2275;52.208;8.804;2022-10-17T02:01:47;13.50;99.90
4526;DHT22;2275;52.208;8.804;2022-10-17T02:04:12;13.50;99.90
4526;DHT22;2275;52.208;8.804;2022-10-17T02:06:39;13.50;99.90
4526;DHT22;2275;52.208;8.804;2022-10-17T02:09:15;13.50;99.90
4526;DHT22;2275;52.208;8.804;2022-10-17T02:11:41;13.50;99.90
4526;DHT22;2275;52.208;8.804;2022-10-17T02:14:22;13.40;99.90
4526;DHT22;2275;52.208;8.804;2022-10-17T02:16:52;13.50;99.90
4526;DHT22;2275;52.208;8.804;2022-10-17T02:19:40;13.50;99.90
4526;DHT22;2275;52.208;8.804;2022-10-17T02:22:14;13.40;99.90
4526;DHT22;2275;52.208;8.804;2022-10-17T02:24:47;13.40;99.90
4526;DHT22;2275;52.208;8.804;2022-10-17T02:27:40;13.40;99.90
4526;DHT22;2275;52.208;8.804;2022-10-17T02:30:14;13.40;99.90
4526;DHT22;2275;52.208;8.804;2022-10-17T02:32:59;13.40;99.90
4526;DHT22;2275;52.208;8.804;2022-10-17T02:35:26;13.40;99.90
4526;DHT22;2275;52.208;8.804;2022-10-17T02:37:52;13.40;99.90
4526;DHT22;2275;52.208;8.804;2022-10-17T02:40:19;13.40;99.90
4526;DHT22;2275;52.208;8.804;2022-10-17T02:42:48;13.40;99.90
4526;DHT22;2275;52.208;8.804;2022-10-17T02:45:15;13.40;99.90
4526;DHT22;2275;52.208;8.804;2022-10-17T02:48:02;13.50;99.90
4526;DHT22;2275;52.208;8.804;2022-10-17T02:50:49;13.40;99.90
4526;DHT22;2275;52.208;8.804;2022-10-17T02:53:14;13.40;99.90
4526;DHT22;2275;52.208;8.804;2022-10-17T02:55:42;13.50;99.90
4526;DHT22;2275;52.208;8.804;2022-10-17T02:58:12;13.40;99.90
4526;DHT22;2275;52.208;8.804;2022-10-17T03:00:38;13.40;99.90
4526;DHT22;2275;52.208;8.804;2022-10-17T03:03:22;13.40;99.90
4526;DHT22;2275;52.208;8.804;2022-10-17T03:05:48;13.40;99.90
4526;DHT22;2275;52.208;8.804;2022-10-17T03:08:16;13.40;99.90
4526;DHT22;2275;52.208;8.804;2022-10-17T03:10:43;13.40;99.90
4526;DHT22;2275;52.208;8.804;2022-10-17T03:13:10;13.40;99.90
4526;DHT22;2275;52.208;8.804;2022-10-17T03:15:38;13.40;99.90
4526;DHT22;2275;52.208;8.804;2022-10-17T03:18:05;13.40;99.90
4526;DHT22;2275;52.208;8.804;2022-10-17T03:20:32;13.40;99.90
4526;DHT22;2275;52.208;8.804;2022-10-17T03:22:59;13.40;99.90
4526;DHT22;2275;52.208;8.804;2022-10-17T03:25:26;13.30;99.90
4526;DHT22;2275;52.208;8.804;2022-10-17T03:27:53;13.40;99.90
4526;DHT22;2275;52.208;8.804;2022-10-17T03:30:21;13.40;99.90
4526;DHT22;2275;52.208;8.804;2022-10-17T03:32:48;13.40;99.90
4526;DHT22;2275;52.208;8.804;2022-10-17T03:35:16;13.40;99.90
4526;DHT22;2275;52.208;8.804;2022-10-17T03:37:43;13.40;99.90
4526;DHT22;2275;52.208;8.804;2022-10-17T03:40:10;13.40;99.90
4526;DHT22;2275;52.208;8.804;2022-10-17T03:42:38;13.40;99.90
4526;DHT22;2275;52.208;8.804;2022-10-17T03:45:06;13.40;99.90
4526;DHT22;2275;52.208;8.804;2022-10-17T03:47:33;13.40;99.90
4526;DHT22;2275;52.208;8.804;2022-10-17T03:50:00;13.40;99.90
4526;DHT22;2275;52.208;8.804;2022-10-17T03:52:27;13.40;99.90
4526;DHT22;2275;52.208;8.804;2022-10-17T03:54:54;13.40;99.90
4526;DHT22;2275;52.208;8.804;2022-10-17T03:57:22;13.40;99.90
4526;DHT22;2275;52.208;8.804;2022-10-17T03:59:49;13.40;99.90
4526;DHT22;2275;52.208;8.804;2022-10-17T04:02:16;13.50;99.90
4526;DHT22;2275;52.208;8.804;2022-10-17T04:04:43;13.40;99.90
4526;DHT22;2275;52.208;8.804;2022-10-17T04:07:10;13.50;99.90
4526;DHT22;2275;52.208;8.804;2022-10-17T04:09:38;13.50;99.90
4526;DHT22;2275;52.208;8.804;2022-10-17T04:12:05;13.50;99.90
4526;DHT22;2275;52.208;8.804;2022-10-17T04:14:32;13.50;99.90
4526;DHT22;2275;52.208;8.804;2022-10-17T04:17:00;13.50;99.90
4526;DHT22;2275;52.208;8.804;2022-10-17T04:19:28;13.50;99.90
4526;DHT22;2275;52.208;8.804;2022-10-17T04:21:55;13.50;99.90
4526;DHT22;2275;52.208;8.804;2022-10-17T04:24:22;13.50;99.90
4526;DHT22;2275;52.208;8.804;2022-10-17T04:26:49;13.50;99.90
4526;DHT22;2275;52.208;8.804;2022-10-17T04:29:17;13.50;99.90
4526;DHT22;2275;52.208;8.804;2022-10-17T04:31:44;13.50;99.90
4526;DHT22;2275;52.208;8.804;2022-10-17T04:34:12;13.50;99.90
4526;DHT22;2275;52.208;8.804;2022-10-17T04:36:39;13.50;99.90
4526;DHT22;2275;52.208;8.804;2022-10-17T04:39:07;13.50;99.90
4526;DHT22;2275;52.208;8.804;2022-10-17T04:41:34;13.50;99.90
4526;DHT22;2275;52.208;8.804;2022-10-17T04:44:01;13.40;99.90
4526;DHT22;2275;52.208;8.804;2022-10-17T04:46:28;13.40;99.90
4526;DHT22;2275;52.208;8.804;2022-10-17T04:48:56;13.50;99.90
4526;DHT22;2275;52.208;8.804;2022-10-17T04:51:23;13.50;99.90
4526;DHT22;2275;52.208;8.804;2022-10-17T04:53:50;13.50;99.90
4526;DHT22;2275;52.208;8.804;2022-10-17T04:56:19;13.50;99.90
4526;DHT22;2275;52.208;8.804;2022-10-17T04:58:46;13.50;99.90
4526;DHT22;2275;52.208;8.804;2022-10-17T05:01:14;13.50;99.90
4526;DHT22;2275;52.208;8.804;2022-10-17T05:03:41;13.50;99.90
4526;DHT22;2275;52.208;8.804;2022-10-17T05:06:09;13.50;99.90
4526;DHT22;2275;52.208;8.804;2022-10-17T05:08:36;13.50;99.90
4526;DHT22;2275;52.208;8.804;2022-10-17T05:11:05;13.50;99.90
4526;DHT22;2275;52.208;8.804;2022-10-17T05:13:32;13.50;99.90
4526;DHT22;2275;52.208;8.804;2022-10-17T05:16:00;13.50;99.90
4526;DHT22;2275;52.208;8.804;2022-10-17T05:18:27;13.50;99.90
4526;DHT22;2275;52.208;8.804;2022-10-17T05:20:53;13.50;99.90
4526;DHT22;2275;52.208;8.804;2022-10-17T05:23:22;13.50;99.90
4526;DHT22;2275;52.208;8.804;2022-10-17T05:25:53;13.60;99.90
4526;DHT22;2275;52.208;8.804;2022-10-17T05:28:21;13.50;99.90
4526;DHT22;2275;52.208;8.804;2022-10-17T05:30:55;13.50;99.90
4526;DHT22;2275;52.208;8.804;2022-10-17T05:33:24;13.50;99.90
4526;DHT22;2275;52.208;8.804;2022-10-17T05:35:52;13.60;99.90
4526;DHT22;2275;52.208;8.804;2022-10-17T05:38:20;13.60;99.90
4526;DHT22;2275;52.208;8.804;2022-10-17T05:40:48;13.60;99.90
4526;DHT22;2275;52.208;8.804;2022-10-17T05:43:15;13.50;99.90
4526;DHT22;2275;52.208;8.804;2022-10-17T05:45:43;13.50;99.90
4526;DHT22;2275;52.208;8.804;2022-10-17T05:48:15;13.50;99.90
4526;DHT22;2275;52.208;8.804;2022-10-17T05:50:42;13.50;99.90
4526;DHT22;2275;52.208;8.804;2022-10-17T05:53:13;13.60;99.90
4526;DHT22;2275;52.208;8.804;2022-10-17T05:55:44;13.60;99.90
4526;DHT22;2275;52.208;8.804;2022-10-17T05:58:14;13.60;99.90
4526;DHT22;2275;52.208;8.804;2022-10-17T06:00:41;13.60;99.90
4526;DHT22;2275;52.208;8.804;2022-10-17T06:03:09;13.60;99.90
4526;DHT22;2275;52.208;8.804;2022-10-17T06:05:36;13.60;99.90
4526;DHT22;2275;52.208;8.804;2022-10-17T06:08:04;13.60;99.90
4526;DHT22;2275;52.208;8.804;2022-10-17T06:10:32;13.60;99.90
4526;DHT22;2275;52.208;8.804;2022-10-17T06:12:59;13.60;99.90
4526;DHT22;2275;52.208;8.804;2022-10-17T06:15:27;13.60;99.90
4526;DHT22;2275;52.208;8.804;2022-10-17T06:17:55;13.60;99.90
4526;DHT22;2275;52.208;8.804;2022-10-17T06:20:24;13.60;99.90
4526;DHT22;2275;52.208;8.804;2022-10-17T06:22:51;13.70;99.90
4526;DHT22;2275;52.208;8.804;2022-10-17T06:25:19;13.70;99.90
4526;DHT22;2275;52.208;8.804;2022-10-17T06:27:46;13.80;99.90
4526;DHT22;2275;52.208;8.804;2022-10-17T06:30:13;13.80;99.90
4526;DHT22;2275;52.208;8.804;2022-10-17T06:32:42;13.80;99.90
4526;DHT22;2275;52.208;8.804;2022-10-17T06:35:09;13.80;99.90
4526;DHT22;2275;52.208;8.804;2022-10-17T06:37:36;13.90;99.90
4526;DHT22;2275;52.208;8.804;2022-10-17T06:40:05;13.90;99.90
4526;DHT22;2275;52.208;8.804;2022-10-17T06:42:32;14.00;99.90
4526;DHT22;2275;52.208;8.804;2022-10-17T06:47:44;14.20;99.90
4526;DHT22;2275;52.208;8.804;2022-10-17T06:50:11;14.30;99.90
4526;DHT22;2275;52.208;8.804;2022-10-17T06:52:38;14.40;99.90
4526;DHT22;2275;52.208;8.804;2022-10-17T06:55:05;14.40;99.90
4526;DHT22;2275;52.208;8.804;2022-10-17T06:57:33;14.50;99.90
4526;DHT22;2275;52.208;8.804;2022-10-17T07:00:02;14.60;99.90
4526;DHT22;2275;52.208;8.804;2022-10-17T07:02:28;14.60;99.90
4526;DHT22;2275;52.208;8.804;2022-10-17T07:04:55;14.70;99.90
4526;DHT22;2275;52.208;8.804;2022-10-17T07:07:22;14.80;99.90
4526;DHT22;2275;52.208;8.804;2022-10-17T07:10:02;14.80;99.90
4526;DHT22;2275;52.208;8.804;2022-10-17T07:12:47;15.00;99.90
4526;DHT22;2275;52.208;8.804;2022-10-17T07:15:15;15.00;99.90
4526;DHT22;2275;52.208;8.804;2022-10-17T07:17:42;15.10;99.90
4526;DHT22;2275;52.208;8.804;2022-10-17T07:20:09;15.10;99.90
4526;DHT22;2275;52.208;8.804;2022-10-17T07:22:36;15.20;99.90
4526;DHT22;2275;52.208;8.804;2022-10-17T07:25:04;15.30;99.90
4526;DHT22;2275;52.208;8.804;2022-10-17T07:27:32;15.30;99.90
4526;DHT22;2275;52.208;8.804;2022-10-17T07:29:59;15.40;99.90
4526;DHT22;2275;52.208;8.804;2022-10-17T07:32:26;15.50;99.90
4526;DHT22;2275;52.208;8.804;2022-10-17T07:34:54;15.60;99.90
4526;DHT22;2275;52.208;8.804;2022-10-17T07:37:21;15.60;99.90
4526;DHT22;2275;52.208;8.804;2022-10-17T07:39:49;15.70;99.90
4526;DHT22;2275;52.208;8.804;2022-10-17T07:42:16;15.80;99.90
4526;DHT22;2275;52.208;8.804;2022-10-17T07:44:43;15.90;99.90
4526;DHT22;2275;52.208;8.804;2022-10-17T07:47:10;16.00;99.90
4526;DHT22;2275;52.208;8.804;2022-10-17T07:49:56;16.00;99.90
4526;DHT22;2275;52.208;8.804;2022-10-17T07:52:23;16.10;99.90
4526;DHT22;2275;52.208;8.804;2022-10-17T07:54:50;16.30;99.90
4526;DHT22;2275;52.208;8.804;2022-10-17T07:57:17;16.40;99.90
4526;DHT22;2275;52.208;8.804;2022-10-17T07:59:44;16.60;99.90
4526;DHT22;2275;52.208;8.804;2022-10-17T08:02:20;16.70;99.90
4526;DHT22;2275;52.208;8.804;2022-10-17T08:04:45;16.80;99.90
4526;DHT22;2275;52.208;8.804;2022-10-17T08:07:11;17.00;99.90
4526;DHT22;2275;52.208;8.804;2022-10-17T08:09:47;17.10;99.90
4526;DHT22;2275;52.208;8.804;2022-10-17T08:12:15;17.20;99.90
4526;DHT22;2275;52.208;8.804;2022-10-17T08:14:43;17.40;99.90
4526;DHT22;2275;52.208;8.804;2022-10-17T08:17:10;17.40;99.90
4526;DHT22;2275;52.208;8.804;2022-10-17T08:19:38;17.50;99.90
4526;DHT22;2275;52.208;8.804;2022-10-17T08:28:20;18.00;99.90
4526;DHT22;2275;52.208;8.804;2022-10-17T08:30:47;18.10;99.90
4526;DHT22;2275;52.208;8.804;2022-10-17T08:33:14;18.20;99.90
4526;DHT22;2275;52.208;8.804;2022-10-17T08:35:41;18.30;99.90
4526;DHT22;2275;52.208;8.804;2022-10-17T08:38:08;18.40;99.90
4526;DHT22;2275;52.208;8.804;2022-10-17T08:40:36;18.70;99.90
4526;DHT22;2275;52.208;8.804;2022-10-17T08:45:52;18.80;99.90
4526;DHT22;2275;52.208;8.804;2022-10-17T08:48:22;18.90;99.90
4526;DHT22;2275;52.208;8.804;2022-10-17T08:50:52;19.00;99.90
4526;DHT22;2275;52.208;8.804;2022-10-17T08:53:29;19.20;99.90
4526;DHT22;2275;52.208;8.804;2022-10-17T08:55:55;19.30;99.90
4526;DHT22;2275;52.208;8.804;2022-10-17T08:58:22;19.50;99.90
4526;DHT22;2275;52.208;8.804;2022-10-17T09:01:01;19.70;99.90
4526;DHT22;2275;52.208;8.804;2022-10-17T09:03:48;19.90;99.90
4526;DHT22;2275;52.208;8.804;2022-10-17T09:09:30;20.20;99.90
4526;DHT22;2275;52.208;8.804;2022-10-17T09:11:50;20.40;99.90
4526;DHT22;2275;52.208;8.804;2022-10-17T09:14:30;20.60;99.90
4526;DHT22;2275;52.208;8.804;2022-10-17T09:19:53;20.90;99.90
4526;DHT22;2275;52.208;8.804;2022-10-17T09:22:17;21.00;99.90
4526;DHT22;2275;52.208;8.804;2022-10-17T09:24:49;21.00;99.90
4526;DHT22;2275;52.208;8.804;2022-10-17T09:27:22;21.20;99.90
4526;DHT22;2275;52.208;8.804;2022-10-17T09:29:47;21.30;99.90
4526;DHT22;2275;52.208;8.804;2022-10-17T09:32:17;21.70;99.90
4526;DHT22;2275;52.208;8.804;2022-10-17T09:34:43;21.70;99.90
4526;DHT22;2275;52.208;8.804;2022-10-17T09:37:12;22.00;99.90
4526;DHT22;2275;52.208;8.804;2022-10-17T09:39:41;22.60;99.90
4526;DHT22;2275;52.208;8.804;2022-10-17T09:42:12;23.30;1.00
4526;DHT22;2275;52.208;8.804;2022-10-17T09:44:46;23.80;1.00
4526;DHT22;2275;52.208;8.804;2022-10-17T09:47:18;24.30;99.90
4526;DHT22;2275;52.208;8.804;2022-10-17T09:49:43;24.50;99.90
4526;DHT22;2275;52.208;8.804;2022-10-17T09:52:16;24.70;99.90
4526;DHT22;2275;52.208;8.804;2022-10-17T09:54:44;25.00;99.90
4526;DHT22;2275;52.208;8.804;2022-10-17T09:57:11;25.20;99.90
4526;DHT22;2275;52.208;8.804;2022-10-17T09:59:38;25.60;99.90
4526;DHT22;2275;52.208;8.804;2022-10-17T10:02:13;26.00;99.90
4526;DHT22;2275;52.208;8.804;2022-10-17T10:04:50;26.70;99.90
4526;DHT22;2275;52.208;8.804;2022-10-17T10:07:16;27.30;99.90
4526;DHT22;2275;52.208;8.804;2022-10-17T10:09:44;28.40;99.90
4526;DHT22;2275;52.208;8.804;2022-10-17T10:12:18;29.20;99.90
4526;DHT22;2275;52.208;8.804;2022-10-17T10:14:44;29.70;99.90
4526;DHT22;2275;52.208;8.804;2022-10-17T10:19:50;29.80;99.90
4526;DHT22;2275;52.208;8.804;2022-10-17T10:22:18;30.20;99.90
4526;DHT22;2275;52.208;8.804;2022-10-17T10:24:44;30.60;99.90
4526;DHT22;2275;52.208;8.804;2022-10-17T10:27:13;30.20;99.90
4526;DHT22;2275;52.208;8.804;2022-10-17T10:29:42;29.70;99.90
4526;DHT22;2275;52.208;8.804;2022-10-17T10:32:26;29.80;99.90
4526;DHT22;2275;52.208;8.804;2022-10-17T10:34:54;29.20;99.90
4526;DHT22;2275;52.208;8.804;2022-10-17T10:37:22;28.90;99.90
4526;DHT22;2275;52.208;8.804;2022-10-17T10:43:01;28.50;99.90
4526;DHT22;2275;52.208;8.804;2022-10-17T10:45:38;28.20;99.90
4526;DHT22;2275;52.208;8.804;2022-10-17T10:47:59;27.80;99.90
4526;DHT22;2275;52.208;8.804;2022-10-17T10:50:39;28.30;99.90
4526;DHT22;2275;52.208;8.804;2022-10-17T10:55:47;28.60;99.90
4526;DHT22;2275;52.208;8.804;2022-10-17T10:58:30;28.60;99.90
4526;DHT22;2275;52.208;8.804;2022-10-17T11:00:53;28.50;99.90
4526;DHT22;2275;52.208;8.804;2022-10-17T11:03:30;28.10;99.90
4526;DHT22;2275;52.208;8.804;2022-10-17T11:05:59;27.50;99.90
4526;DHT22;2275;52.208;8.804;2022-10-17T11:08:28;26.90;99.90
4526;DHT22;2275;52.208;8.804;2022-10-17T11:11:12;26.40;99.90
4526;DHT22;2275;52.208;8.804;2022-10-17T11:14:02;26.00;99.90
4526;DHT22;2275;52.208;8.804;2022-10-17T11:16:33;25.40;99.90
4526;DHT22;2275;52.208;8.804;2022-10-17T11:21:42;24.60;99.90
4526;DHT22;2275;52.208;8.804;2022-10-17T11:24:14;24.60;99.90
4526;DHT22;2275;52.208;8.804;2022-10-17T11:26:40;24.50;99.90
4526;DHT22;2275;52.208;8.804;2022-10-17T11:29:05;24.40;99.90
4526;DHT22;2275;52.208;8.804;2022-10-17T11:31:35;24.30;99.90
4526;DHT22;2275;52.208;8.804;2022-10-17T11:34:07;24.20;99.90
4526;DHT22;2275;52.208;8.804;2022-10-17T11:36:34;24.00;99.90
4526;DHT22;2275;52.208;8.804;2022-10-17T11:39:03;23.80;99.90
4526;DHT22;2275;52.208;8.804;2022-10-17T11:41:37;23.70;99.90
4526;DHT22;2275;52.208;8.804;2022-10-17T11:44:05;23.70;99.90
4526;DHT22;2275;52.208;8.804;2022-10-17T11:46:30;23.60;99.90
4526;DHT22;2275;52.208;8.804;2022-10-17T11:55:22;23.30;99.90
4526;DHT22;2275;52.208;8.804;2022-10-17T11:57:55;23.20;99.90
4526;DHT22;2275;52.208;8.804;2022-10-17T12:00:26;23.10;99.90
4526;DHT22;2275;52.208;8.804;2022-10-17T12:02:59;23.10;99.90
4526;DHT22;2275;52.208;8.804;2022-10-17T12:05:42;23.20;99.90
4526;DHT22;2275;52.208;8.804;2022-10-17T12:08:12;23.30;99.90
4526;DHT22;2275;52.208;8.804;2022-10-17T12:13:47;23.20;99.90
4526;DHT22;2275;52.208;8.804;2022-10-17T12:16:35;23.20;99.90
4526;DHT22;2275;52.208;8.804;2022-10-17T12:19:19;23.30;99.90
4526;DHT22;2275;52.208;8.804;2022-10-17T12:21:53;23.40;99.90
4526;DHT22;2275;52.208;8.804;2022-10-17T12:24:30;23.40;99.90
4526;DHT22;2275;52.208;8.804;2022-10-17T12:26:53;23.30;99.90
4526;DHT22;2275;52.208;8.804;2022-10-17T12:29:25;23.20;99.90
4526;DHT22;2275;52.208;8.804;2022-10-17T12:31:50;23.10;99.90
4526;DHT22;2275;52.208;8.804;2022-10-17T12:34:18;23.00;99.90
4526;DHT22;2275;52.208;8.804;2022-10-17T12:36:45;23.00;99.90
4526;DHT22;2275;52.208;8.804;2022-10-17T12:39:40;22.90;99.90
4526;DHT22;2275;52.208;8.804;2022-10-17T12:42:27;22.90;99.90
4526;DHT22;2275;52.208;8.804;2022-10-17T12:44:34;22.90;99.90
4526;DHT22;2275;52.208;8.804;2022-10-17T12:47:27;23.00;99.90
4526;DHT22;2275;52.208;8.804;2022-10-17T12:49:53;23.10;99.90
4526;DHT22;2275;52.208;8.804;2022-10-17T12:52:50;23.10;99.90
4526;DHT22;2275;52.208;8.804;2022-10-17T12:55:10;23.10;99.90
4526;DHT22;2275;52.208;8.804;2022-10-17T12:57:48;23.10;99.90
4526;DHT22;2275;52.208;8.804;2022-10-17T13:00:16;23.10;99.90
4526;DHT22;2275;52.208;8.804;2022-10-17T13:02:42;22.90;99.90
4526;DHT22;2275;52.208;8.804;2022-10-17T13:05:14;22.90;99.90
4526;DHT22;2275;52.208;8.804;2022-10-17T13:07:41;22.70;99.90
4526;DHT22;2275;52.208;8.804;2022-10-17T13:10:16;22.50;99.90
4526;DHT22;2275;52.208;8.804;2022-10-17T13:12:35;22.30;99.90
4526;DHT22;2275;52.208;8.804;2022-10-17T13:15:03;22.30;99.90
4526;DHT22;2275;52.208;8.804;2022-10-17T13:17:33;22.20;99.90
4526;DHT22;2275;52.208;8.804;2022-10-17T13:20:01;22.10;99.90
4526;DHT22;2275;52.208;8.804;2022-10-17T13:22:32;22.10;99.90
4526;DHT22;2275;52.208;8.804;2022-10-17T13:25:11;22.10;99.90
4526;DHT22;2275;52.208;8.804;2022-10-17T13:27:37;22.20;99.90
4526;DHT22;2275;52.208;8.804;2022-10-17T13:32:38;22.20;99.90
4526;DHT22;2275;52.208;8.804;2022-10-17T13:35:06;22.30;99.90
4526;DHT22;2275;52.208;8.804;2022-10-17T13:37:31;22.50;99.90
4526;DHT22;2275;52.208;8.804;2022-10-17T13:39:58;22.60;99.90
4526;DHT22;2275;52.208;8.804;2022-10-17T13:42:27;22.70;99.90
4526;DHT22;2275;52.208;8.804;2022-10-17T13:44:53;22.70;99.90
4526;DHT22;2275;52.208;8.804;2022-10-17T13:47:24;22.70;99.90
4526;DHT22;2275;52.208;8.804;2022-10-17T13:49:50;22.70;65.10
4526;DHT22;2275;52.208;8.804;2022-10-17T13:52:19;22.70;1.00
4526;DHT22;2275;52.208;8.804;2022-10-17T13:54:46;22.60;99.90
4526;DHT22;2275;52.208;8.804;2022-10-17T13:57:24;22.60;1.00
4526;DHT22;2275;52.208;8.804;2022-10-17T14:00:05;22.60;1.00
4526;DHT22;2275;52.208;8.804;2022-10-17T14:02:32;22.50;6.60
4526;DHT22;2275;52.208;8.804;2022-10-17T14:05:10;22.60;99.90
4526;DHT22;2275;52.208;8.804;2022-10-17T14:07:43;22.60;31.40
4526;DHT22;2275;52.208;8.804;2022-10-17T14:10:24;22.60;99.90
4526;DHT22;2275;52.208;8.804;2022-10-17T14:12:46;22.60;99.90
4526;DHT22;2275;52.208;8.804;2022-10-17T14:15:20;22.60;1.00
4526;DHT22;2275;52.208;8.804;2022-10-17T14:17:52;22.60;97.10
4526;DHT22;2275;52.208;8.804;2022-10-17T14:20:18;22.50;1.00
4526;DHT22;2275;52.208;8.804;2022-10-17T14:22:44;22.40;1.00
4526;DHT22;2275;52.208;8.804;2022-10-17T14:27:55;22.30;1.00
4526;DHT22;2275;52.208;8.804;2022-10-17T14:30:34;22.30;1.00
4526;DHT22;2275;52.208;8.804;2022-10-17T14:33:01;22.30;1.00
4526;DHT22;2275;52.208;8.804;2022-10-17T14:35:28;22.40;99.90
4526;DHT22;2275;52.208;8.804;2022-10-17T14:38:00;22.30;1.00
4526;DHT22;2275;52.208;8.804;2022-10-17T14:40:30;22.40;99.90
4526;DHT22;2275;52.208;8.804;2022-10-17T14:42:57;22.30;99.90
4526;DHT22;2275;52.208;8.804;2022-10-17T14:45:30;22.30;99.90
4526;DHT22;2275;52.208;8.804;2022-10-17T14:48:09;22.00;1.00
4526;DHT22;2275;52.208;8.804;2022-10-17T14:50:37;22.00;1.00
4526;DHT22;2275;52.208;8.804;2022-10-17T14:55:54;21.40;99.90
4526;DHT22;2275;52.208;8.804;2022-10-17T14:58:23;21.30;99.90
4526;DHT22;2275;52.208;8.804;2022-10-17T15:00:50;21.20;1.00
4526;DHT22;2275;52.208;8.804;2022-10-17T15:03:17;21.00;1.00
4526;DHT22;2275;52.208;8.804;2022-10-17T15:05:44;20.90;1.00
4526;DHT22;2275;52.208;8.804;2022-10-17T15:08:20;20.80;1.00
4526;DHT22;2275;52.208;8.804;2022-10-17T15:10:48;20.90;1.00
4526;DHT22;2275;52.208;8.804;2022-10-17T15:13:14;21.00;1.00
4526;DHT22;2275;52.208;8.804;2022-10-17T15:15:42;21.10;1.00
4526;DHT22;2275;52.208;8.804;2022-10-17T15:18:10;21.10;1.00
4526;DHT22;2275;52.208;8.804;2022-10-17T15:20:37;21.20;1.00
4526;DHT22;2275;52.208;8.804;2022-10-17T15:23:05;21.20;99.90
4526;DHT22;2275;52.208;8.804;2022-10-17T15:25:32;21.20;99.90
4526;DHT22;2275;52.208;8.804;2022-10-17T15:27:59;21.30;99.90
4526;DHT22;2275;52.208;8.804;2022-10-17T15:30:28;21.30;99.90
4526;DHT22;2275;52.208;8.804;2022-10-17T15:32:54;21.40;99.90
4526;DHT22;2275;52.208;8.804;2022-10-17T15:35:21;21.40;99.90
4526;DHT22;2275;52.208;8.804;2022-10-17T15:37:48;21.40;99.90
4526;DHT22;2275;52.208;8.804;2022-10-17T15:40:23;21.30;99.90
4526;DHT22;2275;52.208;8.804;2022-10-17T15:42:48;21.30;99.90
4526;DHT22;2275;52.208;8.804;2022-10-17T15:45:16;21.30;99.90
4526;DHT22;2275;52.208;8.804;2022-10-17T15:47:50;21.30;99.90
4526;DHT22;2275;52.208;8.804;2022-10-17T15:50:13;21.30;99.90
4526;DHT22;2275;52.208;8.804;2022-10-17T15:52:39;21.30;99.90
4526;DHT22;2275;52.208;8.804;2022-10-17T15:55:07;21.30;99.90
4526;DHT22;2275;52.208;8.804;2022-10-17T15:57:36;21.30;99.90
4526;DHT22;2275;52.208;8.804;2022-10-17T16:00:04;21.30;99.90
4526;DHT22;2275;52.208;8.804;2022-10-17T16:02:30;21.20;99.90
4526;DHT22;2275;52.208;8.804;2022-10-17T16:04:57;21.20;99.90
4526;DHT22;2275;52.208;8.804;2022-10-17T16:07:24;21.20;99.90
4526;DHT22;2275;52.208;8.804;2022-10-17T16:09:51;21.20;99.90
4526;DHT22;2275;52.208;8.804;2022-10-17T16:12:21;21.20;99.90
4526;DHT22;2275;52.208;8.804;2022-10-17T16:14:48;21.20;99.90
4526;DHT22;2275;52.208;8.804;2022-10-17T16:17:14;21.10;99.90
4526;DHT22;2275;52.208;8.804;2022-10-17T16:19:41;21.20;99.90
4526;DHT22;2275;52.208;8.804;2022-10-17T16:22:28;21.10;1.00
4526;DHT22;2275;52.208;8.804;2022-10-17T16:24:54;21.10;99.90
4526;DHT22;2275;52.208;8.804;2022-10-17T16:27:21;21.10;1.00
4526;DHT22;2275;52.208;8.804;2022-10-17T16:29:49;20.90;1.00
4526;DHT22;2275;52.208;8.804;2022-10-17T16:32:16;20.80;1.00
4526;DHT22;2275;52.208;8.804;2022-10-17T16:34:43;20.70;1.00
4526;DHT22;2275;52.208;8.804;2022-10-17T16:37:10;20.70;1.00
4526;DHT22;2275;52.208;8.804;2022-10-17T16:39:37;20.60;1.00
4526;DHT22;2275;52.208;8.804;2022-10-17T16:42:05;20.70;1.00
4526;DHT22;2275;52.208;8.804;2022-10-17T16:44:32;20.70;1.00
4526;DHT22;2275;52.208;8.804;2022-10-17T16:46:59;20.70;1.00
4526;DHT22;2275;52.208;8.804;2022-10-17T16:49:26;20.60;1.00
4526;DHT22;2275;52.208;8.804;2022-10-17T16:51:53;20.60;1.00
4526;DHT22;2275;52.208;8.804;2022-10-17T16:54:20;20.40;1.00
4526;DHT22;2275;52.208;8.804;2022-10-17T16:56:47;20.30;1.00
4526;DHT22;2275;52.208;8.804;2022-10-17T16:59:30;20.20;1.00
4526;DHT22;2275;52.208;8.804;2022-10-17T17:01:58;20.00;1.00
4526;DHT22;2275;52.208;8.804;2022-10-17T17:04:27;19.70;1.00
4526;DHT22;2275;52.208;8.804;2022-10-17T17:06:54;19.50;1.00
4526;DHT22;2275;52.208;8.804;2022-10-17T17:12:16;19.40;3.90
4526;DHT22;2275;52.208;8.804;2022-10-17T17:14:42;19.30;7.70
4526;DHT22;2275;52.208;8.804;2022-10-17T17:17:10;19.30;8.20